sensor_id;sensor_type;location;lat;lon;timestamp;pressure;altitude;pressure_sealevel;temperature;humidity
59063;BME280;44851;45.648;9.004;2024-03-08T00:00:05;98921.81;;;8.17;67.65
59063;BME280;44851;45.648;9.004;2024-03-08T00:02:38;98924.19;;;8.09;67.78
59063;BME280;44851;45.648;9.004;2024-03-08T00:05:05;98917.34;;;8.08;67.74
59063;BME280;44851;45.648;9.004;2024-03-08T00:07:31;98913.13;;;8.07;67.51
59063;BME280;44851;45.648;9.004;2024-03-08T00:09:56;98918.53;;;8.15;67.51
59063;BME280;44851;45.648;9.004;2024-03-08T00:12:22;98920.66;;;8.10;67.88
59063;BME280;44851;45.648;9.004;2024-03-08T00:14:47;98918.94;;;7.99;67.90
59063;BME280;44851;45.648;9.004;2024-03-08T00:17:12;98920.22;;;8.05;68.68
59063;BME280;44851;45.648;9.004;2024-03-08T00:19:38;98925.19;;;7.97;68.38
59063;BME280;44851;45.648;9.004;2024-03-08T00:22:04;98932.03;;;7.98;68.15
59063;BME280;44851;45.648;9.004;2024-03-08T00:24:30;98931.94;;;7.88;68.21
59063;BME280;44851;45.648;9.004;2024-03-08T00:26:56;98929.66;;;8.06;68.66
59063;BME280;44851;45.648;9.004;2024-03-08T00:29:21;98927.78;;;7.97;68.55
59063;BME280;44851;45.648;9.004;2024-03-08T00:31:47;98917.63;;;8.05;68.82
59063;BME280;44851;45.648;9.004;2024-03-08T00:34:12;98921.66;;;7.98;68.86
59063;BME280;44851;45.648;9.004;2024-03-08T00:36:38;98917.41;;;7.97;68.43
59063;BME280;44851;45.648;9.004;2024-03-08T00:39:04;98919.44;;;8.14;68.58
59063;BME280;44851;45.648;9.004;2024-03-08T00:41:32;98920.59;;;8.21;68.64
59063;BME280;44851;45.648;9.004;2024-03-08T00:43:57;98913.75;;;7.99;68.14
59063;BME280;44851;45.648;9.004;2024-03-08T00:46:23;98923.56;;;7.96;68.36
59063;BME280;44851;45.648;9.004;2024-03-08T00:48:49;98919.78;;;8.00;68.59
59063;BME280;44851;45.648;9.004;2024-03-08T00:51:14;98921.91;;;7.95;68.80
59063;BME280;44851;45.648;9.004;2024-03-08T00:53:41;98924.59;;;7.93;69.19
59063;BME280;44851;45.648;9.004;2024-03-08T00:56:07;98922.66;;;7.86;68.62
59063;BME280;44851;45.648;9.004;2024-03-08T00:58:36;98920.50;;;7.91;68.49
59063;BME280;44851;45.648;9.004;2024-03-08T01:01:02;98915.22;;;7.81;68.46
59063;BME280;44851;45.648;9.004;2024-03-08T01:03:27;98918.78;;;7.80;68.56
59063;BME280;44851;45.648;9.004;2024-03-08T01:05:52;98913.84;;;7.66;69.63
59063;BME280;44851;45.648;9.004;2024-03-08T01:08:18;98919.59;;;7.81;69.31
59063;BME280;44851;45.648;9.004;2024-03-08T01:10:43;98922.19;;;7.81;69.01
59063;BME280;44851;45.648;9.004;2024-03-08T01:13:09;98919.72;;;7.79;68.70
59063;BME280;44851;45.648;9.004;2024-03-08T01:15:34;98917.69;;;7.83;68.61
59063;BME280;44851;45.648;9.004;2024-03-08T01:18:00;98913.59;;;7.80;68.13
59063;BME280;44851;45.648;9.004;2024-03-08T01:20:26;98917.25;;;7.78;68.42
59063;BME280;44851;45.648;9.004;2024-03-08T01:22:51;98914.09;;;7.63;69.18
59063;BME280;44851;45.648;9.004;2024-03-08T01:25:17;98910.00;;;7.49;70.47
59063;BME280;44851;45.648;9.004;2024-03-08T01:27:42;98901.16;;;7.40;69.85
59063;BME280;44851;45.648;9.004;2024-03-08T01:30:08;98909.31;;;7.47;70.03
59063;BME280;44851;45.648;9.004;2024-03-08T01:32:34;98904.81;;;7.49;69.38
59063;BME280;44851;45.648;9.004;2024-03-08T01:35:00;98908.41;;;7.26;69.24
59063;BME280;44851;45.648;9.004;2024-03-08T01:37:25;98908.16;;;7.29;70.96
59063;BME280;44851;45.648;9.004;2024-03-08T01:39:50;98905.22;;;7.22;72.05
59063;BME280;44851;45.648;9.004;2024-03-08T01:42:16;98902.13;;;7.39;71.24
59063;BME280;44851;45.648;9.004;2024-03-08T01:44:43;98895.53;;;7.35;70.96
59063;BME280;44851;45.648;9.004;2024-03-08T01:47:09;98902.47;;;7.46;71.41
59063;BME280;44851;45.648;9.004;2024-03-08T01:49:36;98903.31;;;7.46;71.63
59063;BME280;44851;45.648;9.004;2024-03-08T01:52:02;98895.88;;;7.42;71.70
59063;BME280;44851;45.648;9.004;2024-03-08T01:54:28;98894.25;;;7.30;71.37
59063;BME280;44851;45.648;9.004;2024-03-08T01:56:56;98888.22;;;7.29;71.76
59063;BME280;44851;45.648;9.004;2024-03-08T01:59:22;98889.31;;;7.27;71.79
59063;BME280;44851;45.648;9.004;2024-03-08T02:01:48;98882.72;;;7.23;71.38
59063;BME280;44851;45.648;9.004;2024-03-08T02:04:14;98874.94;;;7.23;71.61
59063;BME280;44851;45.648;9.004;2024-03-08T02:06:39;98882.13;;;7.19;71.00
59063;BME280;44851;45.648;9.004;2024-03-08T02:09:05;98881.66;;;7.25;71.39
59063;BME280;44851;45.648;9.004;2024-03-08T02:11:34;98876.59;;;7.24;71.79
59063;BME280;44851;45.648;9.004;2024-03-08T02:13:59;98874.25;;;7.20;71.04
59063;BME280;44851;45.648;9.004;2024-03-08T02:16:25;98877.19;;;7.16;71.97
59063;BME280;44851;45.648;9.004;2024-03-08T02:18:50;98875.88;;;7.21;72.14
59063;BME280;44851;45.648;9.004;2024-03-08T02:21:18;98875.63;;;7.25;71.54
59063;BME280;44851;45.648;9.004;2024-03-08T02:23:44;98872.16;;;7.14;71.60
59063;BME280;44851;45.648;9.004;2024-03-08T02:26:09;98878.34;;;7.23;71.26
59063;BME280;44851;45.648;9.004;2024-03-08T02:28:36;98875.41;;;7.28;71.36
59063;BME280;44851;45.648;9.004;2024-03-08T02:31:01;98875.16;;;7.31;70.57
59063;BME280;44851;45.648;9.004;2024-03-08T02:33:27;98874.34;;;7.30;70.18
59063;BME280;44851;45.648;9.004;2024-03-08T02:35:54;98875.75;;;7.23;70.24
59063;BME280;44851;45.648;9.004;2024-03-08T02:38:21;98871.88;;;7.17;70.67
59063;BME280;44851;45.648;9.004;2024-03-08T02:40:48;98875.91;;;7.10;70.29
59063;BME280;44851;45.648;9.004;2024-03-08T02:43:15;98873.31;;;7.10;70.52
59063;BME280;44851;45.648;9.004;2024-03-08T02:45:41;98871.44;;;7.01;70.15
59063;BME280;44851;45.648;9.004;2024-03-08T02:48:09;98876.97;;;6.97;71.04
59063;BME280;44851;45.648;9.004;2024-03-08T02:50:35;98872.03;;;7.05;70.39
59063;BME280;44851;45.648;9.004;2024-03-08T02:53:01;98873.06;;;7.13;70.13
59063;BME280;44851;45.648;9.004;2024-03-08T02:55:26;98871.41;;;7.12;70.18
59063;BME280;44851;45.648;9.004;2024-03-08T02:57:52;98878.25;;;7.13;70.68
59063;BME280;44851;45.648;9.004;2024-03-08T03:00:20;98883.19;;;7.16;70.12
59063;BME280;44851;45.648;9.004;2024-03-08T03:02:46;98883.44;;;7.13;70.43
59063;BME280;44851;45.648;9.004;2024-03-08T03:05:12;98877.31;;;7.14;70.72
59063;BME280;44851;45.648;9.004;2024-03-08T03:07:38;98882.13;;;7.19;71.22
59063;BME280;44851;45.648;9.004;2024-03-08T03:10:04;98882.00;;;7.32;71.00
59063;BME280;44851;45.648;9.004;2024-03-08T03:12:30;98890.69;;;7.42;70.81
59063;BME280;44851;45.648;9.004;2024-03-08T03:14:57;98885.75;;;7.39;70.73
59063;BME280;44851;45.648;9.004;2024-03-08T03:17:23;98889.63;;;7.44;70.88
59063;BME280;44851;45.648;9.004;2024-03-08T03:19:49;98876.97;;;7.51;71.19
59063;BME280;44851;45.648;9.004;2024-03-08T03:22:15;98876.16;;;7.51;71.43
59063;BME280;44851;45.648;9.004;2024-03-08T03:24:41;98880.88;;;7.45;71.16
59063;BME280;44851;45.648;9.004;2024-03-08T03:27:07;98876.75;;;7.54;71.86
59063;BME280;44851;45.648;9.004;2024-03-08T03:29:39;98873.97;;;7.46;72.16
59063;BME280;44851;45.648;9.004;2024-03-08T03:32:10;98880.16;;;7.55;71.99
59063;BME280;44851;45.648;9.004;2024-03-08T03:34:36;98875.59;;;7.47;72.04
59063;BME280;44851;45.648;9.004;2024-03-08T03:37:02;98877.69;;;7.53;71.69
59063;BME280;44851;45.648;9.004;2024-03-08T03:39:28;98876.78;;;7.43;71.91
59063;BME280;44851;45.648;9.004;2024-03-08T03:41:57;98876.78;;;7.43;71.85
59063;BME280;44851;45.648;9.004;2024-03-08T03:44:22;98877.72;;;7.42;71.77
59063;BME280;44851;45.648;9.004;2024-03-08T03:46:49;98882.09;;;7.41;72.08
59063;BME280;44851;45.648;9.004;2024-03-08T03:49:16;98886.47;;;7.41;72.00
59063;BME280;44851;45.648;9.004;2024-03-08T03:51:42;98882.66;;;7.45;71.73
59063;BME280;44851;45.648;9.004;2024-03-08T03:54:07;98884.06;;;7.49;71.73
59063;BME280;44851;45.648;9.004;2024-03-08T03:56:32;98875.16;;;7.31;71.98
59063;BME280;44851;45.648;9.004;2024-03-08T03:58:58;98872.34;;;7.23;71.96
59063;BME280;44851;45.648;9.004;2024-03-08T04:01:23;98872.84;;;7.16;72.02
59063;BME280;44851;45.648;9.004;2024-03-08T04:03:49;98872.00;;;7.16;72.26
59063;BME280;44851;45.648;9.004;2024-03-08T04:06:14;98876.38;;;7.15;72.21
59063;BME280;44851;45.648;9.004;2024-03-08T04:08:40;98873.78;;;7.15;71.96
59063;BME280;44851;45.648;9.004;2024-03-08T04:11:06;98870.38;;;7.15;72.73
59063;BME280;44851;45.648;9.004;2024-03-08T04:13:32;98873.66;;;7.17;72.35
59063;BME280;44851;45.648;9.004;2024-03-08T04:15:58;98876.03;;;7.20;72.11
59063;BME280;44851;45.648;9.004;2024-03-08T04:18:23;98871.78;;;7.08;72.42
59063;BME280;44851;45.648;9.004;2024-03-08T04:20:48;98878.03;;;7.05;72.47
59063;BME280;44851;45.648;9.004;2024-03-08T04:23:14;98877.09;;;7.06;72.55
59063;BME280;44851;45.648;9.004;2024-03-08T04:25:41;98872.41;;;7.00;72.32
59063;BME280;44851;45.648;9.004;2024-03-08T04:28:07;98870.25;;;7.05;72.81
59063;BME280;44851;45.648;9.004;2024-03-08T04:30:35;98869.19;;;7.08;73.00
59063;BME280;44851;45.648;9.004;2024-03-08T04:33:02;98871.44;;;7.01;73.24
59063;BME280;44851;45.648;9.004;2024-03-08T04:35:28;98866.25;;;7.01;72.43
59063;BME280;44851;45.648;9.004;2024-03-08T04:37:54;98870.97;;;6.96;73.04
59063;BME280;44851;45.648;9.004;2024-03-08T04:40:19;98869.81;;;6.89;73.20
59063;BME280;44851;45.648;9.004;2024-03-08T04:42:45;98865.59;;;6.88;73.42
59063;BME280;44851;45.648;9.004;2024-03-08T04:45:10;98869.00;;;6.88;73.10
59063;BME280;44851;45.648;9.004;2024-03-08T04:47:39;98870.03;;;6.86;73.68
59063;BME280;44851;45.648;9.004;2024-03-08T04:50:05;98869.47;;;6.82;73.73
59063;BME280;44851;45.648;9.004;2024-03-08T04:52:30;98868.16;;;6.88;72.46
59063;BME280;44851;45.648;9.004;2024-03-08T04:54:56;98878.06;;;6.94;72.65
59063;BME280;44851;45.648;9.004;2024-03-08T04:57:21;98869.56;;;6.92;72.63
59063;BME280;44851;45.648;9.004;2024-03-08T04:59:46;98880.41;;;6.86;72.20
59063;BME280;44851;45.648;9.004;2024-03-08T05:02:12;98876.53;;;6.80;72.47
59063;BME280;44851;45.648;9.004;2024-03-08T05:04:37;98872.50;;;6.87;72.84
59063;BME280;44851;45.648;9.004;2024-03-08T05:07:03;98872.28;;;6.90;73.09
59063;BME280;44851;45.648;9.004;2024-03-08T05:09:29;98870.63;;;6.89;72.94
59063;BME280;44851;45.648;9.004;2024-03-08T05:11:56;98878.63;;;6.98;73.22
59063;BME280;44851;45.648;9.004;2024-03-08T05:14:25;98874.72;;;7.03;72.93
59063;BME280;44851;45.648;9.004;2024-03-08T05:16:50;98878.72;;;7.07;73.27
59063;BME280;44851;45.648;9.004;2024-03-08T05:19:17;98875.91;;;7.10;73.39
59063;BME280;44851;45.648;9.004;2024-03-08T05:21:46;98876.88;;;7.09;73.52
59063;BME280;44851;45.648;9.004;2024-03-08T05:24:12;98874.03;;;7.01;73.67
59063;BME280;44851;45.648;9.004;2024-03-08T05:26:38;98880.63;;;7.05;74.36
59063;BME280;44851;45.648;9.004;2024-03-08T05:29:04;98885.56;;;6.97;74.68
59063;BME280;44851;45.648;9.004;2024-03-08T05:31:35;98881.44;;;7.06;74.72
59063;BME280;44851;45.648;9.004;2024-03-08T05:34:03;98881.31;;;7.07;75.62
59063;BME280;44851;45.648;9.004;2024-03-08T05:36:28;98878.50;;;7.10;75.09
59063;BME280;44851;45.648;9.004;2024-03-08T05:38:54;98878.50;;;7.10;75.48
59063;BME280;44851;45.648;9.004;2024-03-08T05:41:19;98883.19;;;7.16;75.24
59063;BME280;44851;45.648;9.004;2024-03-08T05:43:45;98885.78;;;7.16;75.13
59063;BME280;44851;45.648;9.004;2024-03-08T05:46:10;98886.50;;;7.18;75.96
59063;BME280;44851;45.648;9.004;2024-03-08T05:48:37;98888.38;;;7.16;75.40
59063;BME280;44851;45.648;9.004;2024-03-08T05:51:02;98883.63;;;7.33;75.29
59063;BME280;44851;45.648;9.004;2024-03-08T05:53:28;98892.09;;;7.35;75.54
59063;BME280;44851;45.648;9.004;2024-03-08T05:55:57;98888.13;;;7.31;75.24
59063;BME280;44851;45.648;9.004;2024-03-08T05:58:22;98888.13;;;7.31;75.12
59063;BME280;44851;45.648;9.004;2024-03-08T06:00:48;98883.31;;;7.26;75.05
59063;BME280;44851;45.648;9.004;2024-03-08T06:03:13;98886.47;;;7.30;75.21
59063;BME280;44851;45.648;9.004;2024-03-08T06:05:38;98890.25;;;7.37;75.63
59063;BME280;44851;45.648;9.004;2024-03-08T06:08:07;98890.47;;;7.34;76.14
59063;BME280;44851;45.648;9.004;2024-03-08T06:10:33;98888.38;;;7.28;75.49
59063;BME280;44851;45.648;9.004;2024-03-08T06:12:59;98890.94;;;7.39;75.93
59063;BME280;44851;45.648;9.004;2024-03-08T06:15:25;98884.78;;;7.40;75.82
59063;BME280;44851;45.648;9.004;2024-03-08T06:17:50;98897.03;;;7.49;76.14
59063;BME280;44851;45.648;9.004;2024-03-08T06:20:18;98895.25;;;7.50;75.77
59063;BME280;44851;45.648;9.004;2024-03-08T06:22:43;98896.56;;;7.44;75.92
59063;BME280;44851;45.648;9.004;2024-03-08T06:25:13;98898.13;;;7.35;75.74
59063;BME280;44851;45.648;9.004;2024-03-08T06:27:41;98895.66;;;7.34;75.65
59063;BME280;44851;45.648;9.004;2024-03-08T06:30:12;98894.59;;;7.36;75.41
59063;BME280;44851;45.648;9.004;2024-03-08T06:32:37;98896.81;;;7.52;74.75
59063;BME280;44851;45.648;9.004;2024-03-08T06:35:03;98893.78;;;7.36;75.46
59063;BME280;44851;45.648;9.004;2024-03-08T06:37:34;98905.06;;;7.46;75.05
59063;BME280;44851;45.648;9.004;2024-03-08T06:40:00;98907.66;;;7.35;75.26
59063;BME280;44851;45.648;9.004;2024-03-08T06:42:26;98911.91;;;7.47;75.63
59063;BME280;44851;45.648;9.004;2024-03-08T06:44:53;98910.94;;;7.48;75.19
59063;BME280;44851;45.648;9.004;2024-03-08T06:47:20;98906.59;;;7.48;75.33
59063;BME280;44851;45.648;9.004;2024-03-08T06:49:46;98909.03;;;7.50;75.08
59063;BME280;44851;45.648;9.004;2024-03-08T06:52:11;98909.75;;;7.52;75.37
59063;BME280;44851;45.648;9.004;2024-03-08T06:54:37;98907.50;;;7.59;74.89
59063;BME280;44851;45.648;9.004;2024-03-08T06:57:05;98910.91;;;7.59;75.31
59063;BME280;44851;45.648;9.004;2024-03-08T06:59:31;98911.03;;;7.58;74.84
59063;BME280;44851;45.648;9.004;2024-03-08T07:01:56;98922.78;;;7.73;74.76
59063;BME280;44851;45.648;9.004;2024-03-08T07:04:22;98909.22;;;7.81;75.04
59063;BME280;44851;45.648;9.004;2024-03-08T07:06:51;98913.41;;;7.93;74.75
59063;BME280;44851;45.648;9.004;2024-03-08T07:09:17;98914.56;;;8.00;74.65
59063;BME280;44851;45.648;9.004;2024-03-08T07:11:42;98913.56;;;8.12;74.12
59063;BME280;44851;45.648;9.004;2024-03-08T07:14:08;98923.75;;;8.25;74.23
59063;BME280;44851;45.648;9.004;2024-03-08T07:16:34;98922.88;;;8.36;74.00
59063;BME280;44851;45.648;9.004;2024-03-08T07:19:01;98921.72;;;8.49;73.66
59063;BME280;44851;45.648;9.004;2024-03-08T07:21:26;98920.75;;;8.71;72.63
59063;BME280;44851;45.648;9.004;2024-03-08T07:23:52;98922.16;;;8.75;71.80
59063;BME280;44851;45.648;9.004;2024-03-08T07:26:26;98922.44;;;8.82;71.33
59063;BME280;44851;45.648;9.004;2024-03-08T07:28:52;98923.88;;;8.96;70.38
59063;BME280;44851;45.648;9.004;2024-03-08T07:31:20;98918.38;;;9.29;70.36
59063;BME280;44851;45.648;9.004;2024-03-08T07:33:51;98928.56;;;9.33;69.51
59063;BME280;44851;45.648;9.004;2024-03-08T07:36:18;98933.00;;;9.30;69.43
59063;BME280;44851;45.648;9.004;2024-03-08T07:38:44;98928.88;;;9.18;69.06
59063;BME280;44851;45.648;9.004;2024-03-08T07:41:12;98930.63;;;9.58;69.01
59063;BME280;44851;45.648;9.004;2024-03-08T07:43:38;98929.41;;;9.62;67.85
59063;BME280;44851;45.648;9.004;2024-03-08T07:46:03;98929.56;;;9.61;67.19
59063;BME280;44851;45.648;9.004;2024-03-08T07:48:28;98936.38;;;9.52;67.15
59063;BME280;44851;45.648;9.004;2024-03-08T07:50:55;98939.69;;;9.54;68.65
59063;BME280;44851;45.648;9.004;2024-03-08T07:53:21;98928.44;;;9.13;68.66
59063;BME280;44851;45.648;9.004;2024-03-08T07:55:47;98940.53;;;9.24;68.94
59063;BME280;44851;45.648;9.004;2024-03-08T07:58:12;98938.56;;;9.16;68.93
59063;BME280;44851;45.648;9.004;2024-03-08T08:00:38;98938.19;;;9.21;68.87
59063;BME280;44851;45.648;9.004;2024-03-08T08:03:04;98938.66;;;9.05;68.77
59063;BME280;44851;45.648;9.004;2024-03-08T08:05:30;98939.00;;;9.21;69.84
59063;BME280;44851;45.648;9.004;2024-03-08T08:08:00;98942.03;;;9.26;69.55
59063;BME280;44851;45.648;9.004;2024-03-08T08:10:25;98942.22;;;9.04;68.93
59063;BME280;44851;45.648;9.004;2024-03-08T08:12:51;98939.84;;;9.22;69.45
59063;BME280;44851;45.648;9.004;2024-03-08T08:15:17;98938.84;;;9.13;68.46
59063;BME280;44851;45.648;9.004;2024-03-08T08:17:43;98940.66;;;9.22;69.85
59063;BME280;44851;45.648;9.004;2024-03-08T08:20:12;98926.38;;;9.07;69.26
59063;BME280;44851;45.648;9.004;2024-03-08T08:22:39;98931.06;;;9.13;68.78
59063;BME280;44851;45.648;9.004;2024-03-08T08:25:08;98930.47;;;9.10;69.27
59063;BME280;44851;45.648;9.004;2024-03-08T08:27:34;98927.69;;;8.92;70.23
59063;BME280;44851;45.648;9.004;2024-03-08T08:30:18;98928.56;;;8.71;68.83
59063;BME280;44851;45.648;9.004;2024-03-08T08:32:44;98931.34;;;8.80;69.64
59063;BME280;44851;45.648;9.004;2024-03-08T08:35:09;98923.84;;;8.86;68.92
59063;BME280;44851;45.648;9.004;2024-03-08T08:37:41;98926.19;;;8.68;69.52
59063;BME280;44851;45.648;9.004;2024-03-08T08:40:07;98925.78;;;8.94;68.73
59063;BME280;44851;45.648;9.004;2024-03-08T08:42:39;98927.78;;;9.11;68.28
59063;BME280;44851;45.648;9.004;2024-03-08T08:45:08;98933.91;;;9.41;67.94
59063;BME280;44851;45.648;9.004;2024-03-08T08:47:35;98931.19;;;9.52;67.42
59063;BME280;44851;45.648;9.004;2024-03-08T08:50:01;98933.66;;;9.63;66.91
59063;BME280;44851;45.648;9.004;2024-03-08T08:52:27;98929.31;;;9.83;67.19
59063;BME280;44851;45.648;9.004;2024-03-08T08:54:54;98935.06;;;9.87;66.49
59063;BME280;44851;45.648;9.004;2024-03-08T08:57:19;98936.00;;;9.86;66.67
59063;BME280;44851;45.648;9.004;2024-03-08T08:59:45;98934.50;;;9.73;66.33
59063;BME280;44851;45.648;9.004;2024-03-08T09:02:11;98933.13;;;9.79;66.66
59063;BME280;44851;45.648;9.004;2024-03-08T09:04:36;98924.47;;;9.69;65.48
59063;BME280;44851;45.648;9.004;2024-03-08T09:07:02;98928.19;;;9.56;66.58
59063;BME280;44851;45.648;9.004;2024-03-08T09:09:27;98925.44;;;9.68;66.62
59063;BME280;44851;45.648;9.004;2024-03-08T09:11:52;98928.31;;;9.74;65.70
59063;BME280;44851;45.648;9.004;2024-03-08T09:14:19;98928.19;;;9.95;65.70
59063;BME280;44851;45.648;9.004;2024-03-08T09:16:45;98925.03;;;10.21;65.09
59063;BME280;44851;45.648;9.004;2024-03-08T09:19:12;98928.34;;;10.13;65.20
59063;BME280;44851;45.648;9.004;2024-03-08T09:21:38;98924.09;;;9.93;63.87
59063;BME280;44851;45.648;9.004;2024-03-08T09:24:05;98923.81;;;9.67;64.74
59063;BME280;44851;45.648;9.004;2024-03-08T09:26:31;98920.63;;;9.53;66.29
59063;BME280;44851;45.648;9.004;2024-03-08T09:28:58;98926.38;;;9.57;65.86
59063;BME280;44851;45.648;9.004;2024-03-08T09:31:24;98929.28;;;9.54;65.73
59063;BME280;44851;45.648;9.004;2024-03-08T09:33:51;98931.06;;;9.73;66.42
59063;BME280;44851;45.648;9.004;2024-03-08T09:36:16;98925.19;;;9.80;65.32
59063;BME280;44851;45.648;9.004;2024-03-08T09:38:42;98932.31;;;9.98;65.00
59063;BME280;44851;45.648;9.004;2024-03-08T09:41:07;98929.16;;;9.85;65.28
59063;BME280;44851;45.648;9.004;2024-03-08T09:43:34;98933.13;;;9.79;64.49
59063;BME280;44851;45.648;9.004;2024-03-08T09:46:00;98936.84;;;9.96;63.92
59063;BME280;44851;45.648;9.004;2024-03-08T09:48:26;98929.56;;;9.90;64.76
59063;BME280;44851;45.648;9.004;2024-03-08T09:50:51;98945.75;;;9.83;64.74
59063;BME280;44851;45.648;9.004;2024-03-08T09:53:17;98931.91;;;10.02;64.64
59063;BME280;44851;45.648;9.004;2024-03-08T09:55:42;98928.75;;;9.99;63.65
59063;BME280;44851;45.648;9.004;2024-03-08T09:58:11;98936.00;;;10.05;64.92
59063;BME280;44851;45.648;9.004;2024-03-08T10:00:55;98930.81;;;10.24;65.04
59063;BME280;44851;45.648;9.004;2024-03-08T10:03:23;98933.94;;;10.38;64.51
59063;BME280;44851;45.648;9.004;2024-03-08T10:05:48;98929.53;;;10.48;64.13
59063;BME280;44851;45.648;9.004;2024-03-08T10:08:14;98929.84;;;10.25;63.16
59063;BME280;44851;45.648;9.004;2024-03-08T10:10:39;98929.28;;;10.31;63.99
59063;BME280;44851;45.648;9.004;2024-03-08T10:13:06;98927.91;;;10.27;64.16
59063;BME280;44851;45.648;9.004;2024-03-08T10:15:32;98927.75;;;10.39;63.69
59063;BME280;44851;45.648;9.004;2024-03-08T10:17:58;98924.38;;;10.09;63.69
59063;BME280;44851;45.648;9.004;2024-03-08T10:20:24;98937.38;;;10.09;63.57
59063;BME280;44851;45.648;9.004;2024-03-08T10:22:51;98924.94;;;10.03;63.82
59063;BME280;44851;45.648;9.004;2024-03-08T10:25:19;98926.41;;;10.15;63.88
59063;BME280;44851;45.648;9.004;2024-03-08T10:27:44;98926.97;;;10.09;64.08
59063;BME280;44851;45.648;9.004;2024-03-08T10:30:12;98926.31;;;10.07;64.01
59063;BME280;44851;45.648;9.004;2024-03-08T10:32:39;98920.66;;;10.21;63.49
59063;BME280;44851;45.648;9.004;2024-03-08T10:35:07;98925.31;;;10.27;63.45
59063;BME280;44851;45.648;9.004;2024-03-08T10:37:44;98925.59;;;10.24;63.08
59063;BME280;44851;45.648;9.004;2024-03-08T10:40:15;98920.22;;;10.35;63.85
59063;BME280;44851;45.648;9.004;2024-03-08T10:42:56;98931.47;;;10.26;61.95
59063;BME280;44851;45.648;9.004;2024-03-08T10:48:02;98924.63;;;10.06;61.89
59063;BME280;44851;45.648;9.004;2024-03-08T10:50:29;98915.31;;;10.03;62.27
59063;BME280;44851;45.648;9.004;2024-03-08T10:53:00;98917.66;;;9.97;62.64
59063;BME280;44851;45.648;9.004;2024-03-08T10:55:28;98913.41;;;9.76;62.75
59063;BME280;44851;45.648;9.004;2024-03-08T10:57:53;98915.19;;;10.05;62.60
59063;BME280;44851;45.648;9.004;2024-03-08T11:00:19;98914.31;;;10.33;61.42
59063;BME280;44851;45.648;9.004;2024-03-08T11:02:52;98908.38;;;10.60;60.92
59063;BME280;44851;45.648;9.004;2024-03-08T11:05:39;98907.81;;;10.67;60.49
59063;BME280;44851;45.648;9.004;2024-03-08T11:08:17;98911.38;;;10.75;60.31
59063;BME280;44851;45.648;9.004;2024-03-08T11:10:55;98919.06;;;10.77;60.57
59063;BME280;44851;45.648;9.004;2024-03-08T11:13:41;98915.25;;;10.71;59.88
59063;BME280;44851;45.648;9.004;2024-03-08T11:16:12;98913.03;;;10.67;60.44
59063;BME280;44851;45.648;9.004;2024-03-08T11:21:36;98911.03;;;10.31;60.92
59063;BME280;44851;45.648;9.004;2024-03-08T11:24:14;98907.63;;;10.31;61.47
59063;BME280;44851;45.648;9.004;2024-03-08T11:26:41;98902.13;;;10.34;61.60
59063;BME280;44851;45.648;9.004;2024-03-08T11:32:11;98897.50;;;10.18;61.70
59063;BME280;44851;45.648;9.004;2024-03-08T11:34:46;98895.97;;;10.25;61.78
59063;BME280;44851;45.648;9.004;2024-03-08T11:37:20;98889.84;;;10.07;61.82
59063;BME280;44851;45.648;9.004;2024-03-08T11:39:58;98880.81;;;9.92;62.30
59063;BME280;44851;45.648;9.004;2024-03-08T11:42:28;98875.03;;;9.78;61.87
59063;BME280;44851;45.648;9.004;2024-03-08T11:44:53;98876.72;;;9.70;62.27
59063;BME280;44851;45.648;9.004;2024-03-08T11:47:19;98874.22;;;10.07;62.86
59063;BME280;44851;45.648;9.004;2024-03-08T11:49:45;98877.50;;;9.90;62.87
59063;BME280;44851;45.648;9.004;2024-03-08T11:52:16;98869.94;;;10.25;61.95
59063;BME280;44851;45.648;9.004;2024-03-08T11:54:42;98865.28;;;10.19;60.97
59063;BME280;44851;45.648;9.004;2024-03-08T11:57:09;98870.09;;;10.14;60.95
59063;BME280;44851;45.648;9.004;2024-03-08T11:59:35;98858.13;;;10.21;61.66
59063;BME280;44851;45.648;9.004;2024-03-08T12:02:05;98859.16;;;10.48;62.50
59063;BME280;44851;45.648;9.004;2024-03-08T12:04:31;98857.06;;;10.61;62.05
59063;BME280;44851;45.648;9.004;2024-03-08T12:06:59;98856.56;;;10.48;61.51
59063;BME280;44851;45.648;9.004;2024-03-08T12:09:28;98860.94;;;10.57;60.87
59063;BME280;44851;45.648;9.004;2024-03-08T12:11:54;98859.00;;;10.59;61.29
59063;BME280;44851;45.648;9.004;2024-03-08T12:14:20;98853.94;;;10.95;60.91
59063;BME280;44851;45.648;9.004;2024-03-08T12:16:46;98857.88;;;11.26;60.59
59063;BME280;44851;45.648;9.004;2024-03-08T12:19:13;98852.66;;;11.26;59.43
59063;BME280;44851;45.648;9.004;2024-03-08T12:21:39;98852.53;;;11.46;58.82
59063;BME280;44851;45.648;9.004;2024-03-08T12:24:11;98849.50;;;11.23;59.56
59063;BME280;44851;45.648;9.004;2024-03-08T12:26:41;98851.31;;;11.40;59.04
59063;BME280;44851;45.648;9.004;2024-03-08T12:29:24;98848.41;;;11.43;59.27
59063;BME280;44851;45.648;9.004;2024-03-08T12:31:52;98856.72;;;11.56;58.89
59063;BME280;44851;45.648;9.004;2024-03-08T12:34:18;98858.28;;;11.67;58.51
59063;BME280;44851;45.648;9.004;2024-03-08T12:36:47;98855.56;;;11.59;58.97
59063;BME280;44851;45.648;9.004;2024-03-08T12:39:20;98842.38;;;11.43;58.58
59063;BME280;44851;45.648;9.004;2024-03-08T12:41:53;98835.81;;;11.38;59.30
59063;BME280;44851;45.648;9.004;2024-03-08T12:44:19;98837.75;;;11.36;59.63
59063;BME280;44851;45.648;9.004;2024-03-08T12:46:47;98838.88;;;11.52;59.59
59063;BME280;44851;45.648;9.004;2024-03-08T12:49:13;98835.75;;;11.48;58.29
59063;BME280;44851;45.648;9.004;2024-03-08T12:51:43;98834.03;;;11.57;59.21
59063;BME280;44851;45.648;9.004;2024-03-08T12:54:08;98818.38;;;11.57;58.22
59063;BME280;44851;45.648;9.004;2024-03-08T12:56:35;98820.75;;;11.68;58.44
59063;BME280;44851;45.648;9.004;2024-03-08T12:59:03;98815.56;;;11.76;59.79
59063;BME280;44851;45.648;9.004;2024-03-08T13:01:29;98817.06;;;11.79;59.22
59063;BME280;44851;45.648;9.004;2024-03-08T13:03:55;98817.25;;;11.59;59.43
59063;BME280;44851;45.648;9.004;2024-03-08T13:06:31;98812.00;;;11.77;58.49
59063;BME280;44851;45.648;9.004;2024-03-08T13:08:57;98815.81;;;11.65;58.65
59063;BME280;44851;45.648;9.004;2024-03-08T13:11:23;98804.56;;;11.64;58.80
59063;BME280;44851;45.648;9.004;2024-03-08T13:13:49;98807.47;;;11.44;58.77